createdAt,value
2018-06-09T00:02:10.981Z,16.80
2018-06-09T00:04:39.543Z,12.50
2018-06-09T00:07:08.071Z,6.70
2018-06-09T00:09:36.585Z,11.90
2018-06-09T00:12:05.296Z,10.33
2018-06-09T00:14:33.807Z,6.13
2018-06-09T00:17:02.396Z,6.87
2018-06-09T00:19:31.657Z,11.17
2018-06-09T00:22:00.274Z,7.47
2018-06-09T00:24:28.763Z,8.27
2018-06-09T00:26:57.260Z,5.77
2018-06-09T00:29:25.774Z,8.00
2018-06-09T00:31:54.257Z,6.20
2018-06-09T00:34:22.770Z,9.73
2018-06-09T00:36:51.274Z,4.30
2018-06-09T00:39:19.788Z,5.00
2018-06-09T00:41:48.287Z,8.10
2018-06-09T00:44:16.801Z,4.37
2018-06-09T00:46:45.311Z,6.07
2018-06-09T00:49:13.870Z,9.93
2018-06-09T00:51:42.401Z,6.50
2018-06-09T00:54:10.936Z,5.67
2018-06-09T00:56:46.798Z,8.57
2018-06-09T00:59:15.324Z,18.83
2018-06-09T01:01:43.844Z,14.00
2018-06-09T01:04:12.405Z,16.70
2018-06-09T01:06:40.923Z,12.50
2018-06-09T01:09:09.529Z,6.70
2018-06-09T01:11:38.053Z,7.80
2018-06-09T01:14:06.586Z,6.30
2018-06-09T01:16:35.109Z,6.17
2018-06-09T01:19:03.317Z,5.67
2018-06-09T01:21:31.838Z,6.70
2018-06-09T01:24:00.389Z,4.90
2018-06-09T01:26:28.892Z,6.20
2018-06-09T01:28:57.414Z,7.90
2018-06-09T01:31:25.914Z,5.83
2018-06-09T01:33:54.469Z,7.13
2018-06-09T01:36:23.100Z,6.30
2018-06-09T01:38:51.630Z,6.03
2018-06-09T01:41:20.152Z,5.03
2018-06-09T01:43:48.749Z,7.03
2018-06-09T01:46:17.264Z,6.83
2018-06-09T01:48:45.810Z,13.67
2018-06-09T01:51:14.330Z,13.40
2018-06-09T01:53:42.855Z,6.70
2018-06-09T01:56:11.331Z,8.17
2018-06-09T01:58:39.856Z,7.50
2018-06-09T02:01:08.406Z,6.07
2018-06-09T02:03:36.914Z,5.47
2018-06-09T02:06:05.422Z,11.13
2018-06-09T02:08:33.942Z,4.17
2018-06-09T02:11:02.435Z,6.90
2018-06-09T02:13:30.945Z,8.57
2018-06-09T02:15:59.438Z,4.03
2018-06-09T02:18:27.978Z,4.73
2018-06-09T02:20:56.470Z,8.17
2018-06-09T02:23:24.950Z,4.93
2018-06-09T02:25:53.466Z,8.53
2018-06-09T02:28:21.970Z,7.27
2018-06-09T02:30:50.496Z,6.63
2018-06-09T02:33:18.988Z,4.67
2018-06-09T02:35:47.491Z,4.07
2018-06-09T02:38:15.994Z,6.73
2018-06-09T02:40:44.509Z,7.60
2018-06-09T02:43:12.982Z,8.30
2018-06-09T02:45:41.507Z,4.90
2018-06-09T02:48:10.028Z,6.60
2018-06-09T02:50:38.564Z,9.67
2018-06-09T02:53:07.054Z,7.43
2018-06-09T02:55:35.588Z,5.27
2018-06-09T02:58:04.124Z,11.53
2018-06-09T03:00:32.647Z,6.00
2018-06-09T03:03:01.193Z,5.60
2018-06-09T03:05:29.721Z,7.73
2018-06-09T03:07:58.401Z,10.47
2018-06-09T03:10:26.912Z,6.27
2018-06-09T03:12:55.542Z,6.80
2018-06-09T03:15:24.038Z,5.20
2018-06-09T03:17:52.577Z,7.60
2018-06-09T03:20:21.093Z,8.20
2018-06-09T03:22:49.581Z,9.57
2018-06-09T03:25:18.095Z,8.73
2018-06-09T03:27:46.266Z,12.30
2018-06-09T03:30:14.754Z,8.20
2018-06-09T03:32:43.233Z,8.93
2018-06-09T03:35:11.765Z,9.27
2018-06-09T03:37:40.344Z,12.30
2018-06-09T03:40:08.855Z,33.53
2018-06-09T03:42:37.336Z,22.50
2018-06-09T03:45:05.914Z,23.00
2018-06-09T03:47:34.473Z,13.27
2018-06-09T03:50:03.031Z,8.93
2018-06-09T03:52:31.544Z,10.00
2018-06-09T03:55:00.106Z,12.53
2018-06-09T03:57:28.629Z,17.87
2018-06-09T03:59:57.177Z,17.37
2018-06-09T04:02:25.693Z,15.20
2018-06-09T04:04:54.234Z,13.83
2018-06-09T04:07:22.436Z,12.70
2018-06-09T04:09:50.948Z,10.70
2018-06-09T04:12:19.491Z,12.23
2018-06-09T04:14:48.099Z,11.03
2018-06-09T04:17:16.639Z,18.37
2018-06-09T04:19:45.140Z,19.50
2018-06-09T04:22:13.668Z,10.70
2018-06-09T04:24:42.195Z,11.57
2018-06-09T04:27:10.733Z,11.20
2018-06-09T04:29:41.199Z,13.47
2018-06-09T04:32:09.821Z,13.13
2018-06-09T04:34:38.338Z,12.47
2018-06-09T04:37:06.870Z,14.57
2018-06-09T04:39:35.375Z,10.03
2018-06-09T04:42:03.898Z,14.73
2018-06-09T04:44:33.389Z,8.97
2018-06-09T04:47:01.938Z,8.73
2018-06-09T04:49:30.465Z,14.23
2018-06-09T04:51:58.970Z,7.43
2018-06-09T04:54:27.450Z,7.97
2018-06-09T04:56:55.962Z,7.73
2018-06-09T04:59:24.470Z,12.57
2018-06-09T05:01:53.050Z,32.87
2018-06-09T05:04:21.625Z,32.00
2018-06-09T05:06:50.145Z,18.97
2018-06-09T05:09:18.635Z,33.17
2018-06-09T05:11:47.149Z,12.60
2018-06-09T05:14:15.639Z,12.17
2018-06-09T05:16:44.166Z,7.67
2018-06-09T05:19:12.662Z,15.70
2018-06-09T05:21:41.174Z,9.73
2018-06-09T05:24:09.746Z,9.30
2018-06-09T05:26:38.256Z,9.73
2018-06-09T05:29:06.753Z,9.70
2018-06-09T05:31:35.306Z,10.90
2018-06-09T05:34:03.913Z,9.80
2018-06-09T05:36:32.437Z,10.67
2018-06-09T05:39:00.926Z,7.80
2018-06-09T05:41:29.439Z,7.90
2018-06-09T05:43:57.926Z,12.43
2018-06-09T05:46:26.427Z,12.77
2018-06-09T05:48:54.957Z,20.33
2018-06-09T05:51:23.513Z,9.47
2018-06-09T05:53:52.031Z,8.63
2018-06-09T05:56:20.223Z,9.83
2018-06-09T05:58:48.754Z,15.37
2018-06-09T06:01:17.452Z,9.40
2018-06-09T06:03:46.005Z,9.83
2018-06-09T06:06:14.594Z,8.37
2018-06-09T06:08:43.138Z,9.60
2018-06-09T06:11:11.646Z,7.33
2018-06-09T06:13:40.237Z,6.23
2018-06-09T06:16:08.770Z,11.93
2018-06-09T06:18:36.990Z,9.57
2018-06-09T06:21:05.516Z,7.47
2018-06-09T06:23:34.061Z,16.77
2018-06-09T06:26:02.592Z,6.23
2018-06-09T06:28:31.132Z,4.60
2018-06-09T06:30:59.659Z,5.23
2018-06-09T06:33:28.194Z,5.33
2018-06-09T06:35:56.711Z,6.70
2018-06-09T06:38:25.267Z,9.77
2018-06-09T06:40:53.801Z,9.63
2018-06-09T06:43:22.372Z,12.70
2018-06-09T06:45:50.601Z,8.77
2018-06-09T06:48:19.187Z,6.87
2018-06-09T06:50:47.750Z,7.67
2018-06-09T06:53:17.221Z,7.23
2018-06-09T06:56:25.126Z,6.97
2018-06-09T06:58:53.642Z,6.00
2018-06-09T07:01:22.153Z,8.60
2018-06-09T07:03:50.793Z,10.50
2018-06-09T07:06:19.310Z,8.73
2018-06-09T07:08:47.833Z,9.50
2018-06-09T07:11:16.329Z,8.50
2018-06-09T07:13:44.858Z,9.90
2018-06-09T07:16:13.346Z,8.53
2018-06-09T07:18:41.874Z,9.63
2018-06-09T07:21:10.394Z,9.30
2018-06-09T07:23:38.925Z,7.73
2018-06-09T07:26:08.403Z,12.63
2018-06-09T07:28:36.951Z,7.70
2018-06-09T07:31:05.452Z,10.00
2018-06-09T07:33:33.980Z,7.53
2018-06-09T07:36:02.538Z,8.63
2018-06-09T07:38:31.084Z,13.03
2018-06-09T07:40:59.612Z,13.50
2018-06-09T07:43:28.162Z,12.03
2018-06-09T07:45:56.674Z,9.63
2018-06-09T07:48:25.248Z,12.03
2018-06-09T07:50:53.813Z,12.97
2018-06-09T07:53:22.501Z,13.23
2018-06-09T07:55:51.365Z,10.77
2018-06-09T07:58:19.907Z,11.23
2018-06-09T08:00:48.464Z,13.33
2018-06-09T08:03:17.375Z,13.40
2018-06-09T08:05:45.930Z,10.93
2018-06-09T08:08:14.469Z,9.90
2018-06-09T08:10:43.003Z,17.83
2018-06-09T08:13:11.648Z,19.13
2018-06-09T08:15:40.189Z,12.87
2018-06-09T08:18:08.829Z,11.93
2018-06-09T08:20:37.384Z,13.37
2018-06-09T08:23:05.925Z,12.07
2018-06-09T08:25:34.467Z,15.20
2018-06-09T08:28:02.993Z,12.37
2018-06-09T08:30:31.551Z,12.60
2018-06-09T08:33:00.176Z,16.70
2018-06-09T08:35:28.730Z,12.30
2018-06-09T08:37:57.245Z,17.93
2018-06-09T08:40:25.884Z,12.17
2018-06-09T08:42:54.103Z,12.10
2018-06-09T08:45:22.663Z,11.93
2018-06-09T08:47:51.169Z,13.40
2018-06-09T08:50:19.717Z,18.53
2018-06-09T08:52:48.218Z,15.07
2018-06-09T08:55:16.752Z,13.70
2018-06-09T08:57:45.244Z,13.47
2018-06-09T09:00:13.817Z,11.20
2018-06-09T09:02:42.347Z,13.07
2018-06-09T09:05:10.995Z,11.80
2018-06-09T09:07:39.503Z,12.73
2018-06-09T09:10:08.031Z,12.10
2018-06-09T09:12:36.535Z,11.90
2018-06-09T09:15:05.090Z,12.77
2018-06-09T09:17:33.599Z,11.33
2018-06-09T09:20:02.137Z,14.53
2018-06-09T09:22:30.687Z,10.30
2018-06-09T09:24:59.213Z,12.10
2018-06-09T09:27:27.728Z,14.70
2018-06-09T09:29:56.260Z,8.93
2018-06-09T09:32:24.853Z,11.40
2018-06-09T09:34:53.378Z,12.23
2018-06-09T09:37:21.858Z,10.50
2018-06-09T09:39:50.412Z,11.00
2018-06-09T09:42:18.933Z,19.47
2018-06-09T09:44:47.453Z,10.70
2018-06-09T09:47:15.953Z,13.37
2018-06-09T09:49:44.504Z,11.87
2018-06-09T09:52:13.035Z,10.67
2018-06-09T09:54:41.715Z,13.20
2018-06-09T09:57:10.294Z,11.73
2018-06-09T09:59:38.832Z,13.03
2018-06-09T10:02:07.465Z,16.47
2018-06-09T10:04:35.971Z,13.40
2018-06-09T10:07:04.859Z,12.47
2018-06-09T10:09:33.371Z,10.93
2018-06-09T10:12:02.010Z,10.37
2018-06-09T10:14:30.815Z,11.10
2018-06-09T10:16:59.348Z,9.80
2018-06-09T10:19:27.878Z,10.60
2018-06-09T10:21:56.414Z,14.23
2018-06-09T10:24:24.934Z,8.73
2018-06-09T10:26:53.455Z,16.73
2018-06-09T10:29:21.966Z,10.90
2018-06-09T10:31:50.508Z,12.30
2018-06-09T10:34:19.010Z,10.57
2018-06-09T10:36:47.535Z,7.90
2018-06-09T10:39:16.044Z,13.40
2018-06-09T10:41:44.585Z,11.30
2018-06-09T10:44:13.092Z,9.50
2018-06-09T10:46:41.625Z,8.70
2018-06-09T10:49:10.149Z,12.23
2018-06-09T10:51:38.666Z,7.97
2018-06-09T10:54:07.168Z,7.77
2018-06-09T10:56:35.721Z,8.50
2018-06-09T10:59:04.323Z,9.83
2018-06-09T11:01:32.902Z,9.87
2018-06-09T11:04:01.407Z,7.80
2018-06-09T11:06:29.922Z,11.53
2018-06-09T11:08:58.410Z,10.70
2018-06-09T11:11:26.975Z,9.70
2018-06-09T11:13:55.485Z,9.07
2018-06-09T11:16:24.039Z,15.13
2018-06-09T11:18:52.561Z,11.37
2018-06-09T11:21:21.192Z,10.70
2018-06-09T11:23:49.742Z,14.43
2018-06-09T11:26:18.275Z,9.40
2018-06-09T11:28:46.796Z,13.13
2018-06-09T11:31:15.322Z,8.60
2018-06-09T11:33:43.853Z,10.57
2018-06-09T11:36:12.360Z,10.93
2018-06-09T11:38:41.376Z,10.50
2018-06-09T11:41:09.874Z,10.00
2018-06-09T11:43:38.434Z,8.00
2018-06-09T11:46:06.969Z,7.77
2018-06-09T11:48:35.492Z,11.17
2018-06-09T11:51:04.015Z,8.87
2018-06-09T11:53:32.560Z,8.03
2018-06-09T11:56:01.085Z,9.10
2018-06-09T11:58:29.615Z,11.70
2018-06-09T12:00:58.241Z,7.53
2018-06-09T12:03:26.777Z,8.37
2018-06-09T12:05:55.358Z,8.70
2018-06-09T12:08:23.903Z,8.50
2018-06-09T12:10:52.426Z,8.50
2018-06-09T12:13:20.960Z,10.83
2018-06-09T12:15:49.502Z,11.50
2018-06-09T12:18:18.146Z,16.33
2018-06-09T12:20:46.661Z,9.33
2018-06-09T12:23:15.201Z,9.77
2018-06-09T12:25:43.710Z,12.47
2018-06-09T12:28:12.273Z,12.60
2018-06-09T12:30:40.780Z,9.23
2018-06-09T12:33:09.314Z,10.10
2018-06-09T12:35:37.818Z,6.93
2018-06-09T12:38:06.578Z,9.57
2018-06-09T12:40:35.086Z,9.73
2018-06-09T12:43:03.302Z,12.10
2018-06-09T12:45:31.848Z,8.23
2018-06-09T12:48:00.354Z,10.60
2018-06-09T12:50:28.913Z,8.70
2018-06-09T12:52:57.466Z,21.83
2018-06-09T12:55:25.998Z,11.07
2018-06-09T12:57:54.541Z,9.27
2018-06-09T13:00:23.070Z,7.80
2018-06-09T13:02:51.622Z,6.80
2018-06-09T13:05:26.738Z,8.67
2018-06-09T13:07:55.283Z,10.40
2018-06-09T13:10:23.857Z,8.50
2018-06-09T13:12:52.421Z,8.70
2018-06-09T13:15:20.966Z,12.10
2018-06-09T13:17:49.510Z,8.13
2018-06-09T13:20:18.070Z,8.40
2018-06-09T13:22:46.589Z,13.40
2018-06-09T13:25:15.283Z,9.10
2018-06-09T13:27:43.807Z,7.27
2018-06-09T13:30:12.437Z,7.93
2018-06-09T13:32:41.054Z,9.67
2018-06-09T13:35:09.605Z,9.30
2018-06-09T13:37:38.136Z,10.40
2018-06-09T13:40:06.949Z,6.50
2018-06-09T13:42:35.494Z,6.67
2018-06-09T13:45:04.106Z,6.90
2018-06-09T13:47:32.649Z,7.00
2018-06-09T13:50:01.217Z,8.20
2018-06-09T13:52:29.734Z,7.27
2018-06-09T13:54:58.287Z,9.13
2018-06-09T13:57:26.811Z,7.40
2018-06-09T13:59:55.391Z,11.50
2018-06-09T14:02:24.054Z,9.33
2018-06-09T14:04:52.625Z,8.17
2018-06-09T14:07:21.197Z,8.23
2018-06-09T14:09:49.733Z,7.57
2018-06-09T14:12:18.244Z,7.73
2018-06-09T14:14:46.815Z,8.40
2018-06-09T14:17:15.345Z,7.30
2018-06-09T14:19:43.902Z,7.50
2018-06-09T14:22:12.472Z,7.73
2018-06-09T14:24:41.006Z,6.93
2018-06-09T14:27:09.521Z,7.40
2018-06-09T14:29:38.045Z,10.20
2018-06-09T14:32:06.567Z,6.60
2018-06-09T14:34:35.135Z,7.00
2018-06-09T14:37:03.674Z,9.10
2018-06-09T14:39:32.212Z,8.10
2018-06-09T14:42:00.740Z,6.43
2018-06-09T14:44:29.269Z,7.07
2018-06-09T14:46:57.804Z,9.23
2018-06-09T14:49:26.409Z,8.40
2018-06-09T14:51:55.882Z,7.90
2018-06-09T14:54:24.424Z,7.80
2018-06-09T14:56:52.949Z,8.23
2018-06-09T14:59:21.515Z,7.60
2018-06-09T15:01:50.054Z,7.50
2018-06-09T15:04:18.570Z,8.60
2018-06-09T15:06:47.121Z,7.93
2018-06-09T15:09:15.646Z,7.60
2018-06-09T15:11:44.199Z,7.93
2018-06-09T15:14:12.799Z,7.07
2018-06-09T15:16:41.350Z,9.80
2018-06-09T15:19:09.871Z,11.10
2018-06-09T15:21:38.424Z,10.13
2018-06-09T15:24:07.046Z,8.33
2018-06-09T15:26:35.605Z,10.10
2018-06-09T15:29:04.125Z,9.20
2018-06-09T15:31:32.660Z,10.10
2018-06-09T15:34:01.270Z,6.93
2018-06-09T15:36:29.831Z,8.60
2018-06-09T15:38:58.349Z,7.20
2018-06-09T15:41:26.905Z,6.20
2018-06-09T15:43:55.498Z,5.80
2018-06-09T15:46:24.125Z,17.00
2018-06-09T15:48:52.747Z,12.47
2018-06-09T15:51:21.309Z,13.27
2018-06-09T15:53:49.825Z,7.73
2018-06-09T15:56:18.384Z,10.40
2018-06-09T15:58:46.913Z,15.40
2018-06-09T16:01:15.458Z,14.63
2018-06-09T16:03:43.971Z,9.13
2018-06-09T16:06:12.529Z,10.20
2018-06-09T16:08:41.052Z,7.23
2018-06-09T16:11:09.585Z,9.13
2018-06-09T16:13:38.190Z,9.27
2018-06-09T16:16:06.746Z,15.13
2018-06-09T16:18:35.287Z,8.93
2018-06-09T16:21:03.858Z,11.03
2018-06-09T16:23:32.419Z,6.73
2018-06-09T16:26:01.011Z,12.00
2018-06-09T16:28:29.518Z,14.20
2018-06-09T16:30:58.777Z,5.87
2018-06-09T16:33:27.390Z,9.27
2018-06-09T16:35:55.909Z,13.93
2018-06-09T16:38:24.135Z,8.10
2018-06-09T16:40:52.662Z,7.00
2018-06-09T16:43:21.187Z,7.80
2018-06-09T16:45:49.959Z,12.20
2018-06-09T16:48:18.610Z,10.40
2018-06-09T16:50:47.122Z,10.17
2018-06-09T16:53:15.654Z,8.73
2018-06-09T16:55:44.158Z,9.93
2018-06-09T16:58:12.686Z,13.63
2018-06-09T17:00:41.312Z,11.10
2018-06-09T17:03:09.898Z,16.43
2018-06-09T17:05:38.385Z,15.90
2018-06-09T17:08:06.895Z,16.47
2018-06-09T17:10:35.397Z,23.63
2018-06-09T17:13:03.603Z,17.90
2018-06-09T17:15:32.112Z,15.00
2018-06-09T17:18:00.630Z,17.67
2018-06-09T17:20:29.148Z,10.73
2018-06-09T17:22:57.677Z,12.33
2018-06-09T17:25:26.187Z,11.70
2018-06-09T17:27:54.410Z,16.93
2018-06-09T17:30:22.894Z,16.50
2018-06-09T17:32:51.417Z,13.00
2018-06-09T17:35:19.938Z,11.97
2018-06-09T17:37:48.451Z,13.30
2018-06-09T17:40:16.986Z,13.03
2018-06-09T17:42:45.536Z,11.20
2018-06-09T17:45:14.067Z,12.73
2018-06-09T17:47:42.578Z,13.40
2018-06-09T17:50:11.153Z,11.80
2018-06-09T17:52:39.693Z,13.40
2018-06-09T17:55:08.232Z,14.13
2018-06-09T17:57:36.770Z,12.67
2018-06-09T18:00:05.630Z,11.90
2018-06-09T18:02:34.163Z,14.40
2018-06-09T18:05:02.723Z,9.70
2018-06-09T18:07:31.282Z,11.10
2018-06-09T18:09:59.509Z,8.07
2018-06-09T18:12:28.065Z,10.97
2018-06-09T18:14:56.607Z,13.57
2018-06-09T18:17:25.134Z,9.57
2018-06-09T18:19:53.625Z,11.07
2018-06-09T18:22:22.125Z,12.90
2018-06-09T18:24:50.647Z,14.03
2018-06-09T18:27:19.138Z,12.10
2018-06-09T18:29:47.463Z,12.07
2018-06-09T18:32:16.132Z,13.30
2018-06-09T18:34:44.738Z,16.07
2018-06-09T18:37:13.232Z,15.40
2018-06-09T18:39:41.826Z,11.77
2018-06-09T18:42:10.314Z,11.33
2018-06-09T18:44:38.831Z,18.63
2018-06-09T18:47:07.354Z,11.20
2018-06-09T18:49:35.905Z,9.97
2018-06-09T18:52:04.416Z,18.40
2018-06-09T18:54:32.982Z,14.87
2018-06-09T18:57:01.464Z,20.40
2018-06-09T18:59:29.994Z,26.30
2018-06-09T19:01:58.491Z,17.20
2018-06-09T19:04:27.006Z,12.00
2018-06-09T19:06:55.506Z,13.50
2018-06-09T19:09:24.026Z,13.77
2018-06-09T19:11:52.525Z,14.97
2018-06-09T19:14:21.065Z,23.13
2018-06-09T19:16:49.558Z,15.83
2018-06-09T19:19:18.155Z,19.10
2018-06-09T19:21:46.713Z,18.37
2018-06-09T19:24:14.910Z,18.97
2018-06-09T19:26:43.457Z,17.67
2018-06-09T19:29:11.976Z,22.80
2018-06-09T19:31:40.470Z,18.40
2018-06-09T19:34:09.035Z,14.17
2018-06-09T19:36:37.606Z,15.23
2018-06-09T19:39:08.245Z,18.40
2018-06-09T19:41:37.057Z,14.80
2018-06-09T19:44:05.574Z,15.50
2018-06-09T19:46:34.060Z,16.33
2018-06-09T19:49:02.629Z,11.00
2018-06-09T19:51:31.132Z,16.30
2018-06-09T19:53:59.697Z,15.27
2018-06-09T19:56:29.236Z,14.27
2018-06-09T19:58:57.765Z,9.80
2018-06-09T20:01:26.280Z,10.43
2018-06-09T20:03:54.834Z,27.90
2018-06-09T20:06:23.337Z,40.00
2018-06-09T20:08:51.906Z,60.10
2018-06-09T20:11:20.453Z,24.30
2018-06-09T20:13:49.345Z,16.87
2018-06-09T20:16:17.917Z,14.83
2018-06-09T20:18:46.424Z,14.47
2018-06-09T20:21:14.978Z,13.90
2018-06-09T20:23:45.481Z,22.70
2018-06-09T20:26:14.050Z,16.20
2018-06-09T20:28:42.620Z,15.30
2018-06-09T20:31:11.199Z,15.53
2018-06-09T20:33:39.818Z,17.40
2018-06-09T20:36:08.473Z,14.23
2018-06-09T20:38:38.059Z,15.97
2018-06-09T20:41:06.687Z,15.60
2018-06-09T20:43:35.208Z,16.03
2018-06-09T20:46:03.791Z,15.20
2018-06-09T20:48:32.333Z,13.27
2018-06-09T20:51:00.874Z,14.40
2018-06-09T20:53:29.482Z,16.07
2018-06-09T20:55:58.070Z,13.00
2018-06-09T20:58:30.763Z,14.07
2018-06-09T21:00:59.288Z,14.07
2018-06-09T21:03:27.769Z,12.17
2018-06-09T21:05:56.445Z,11.27
2018-06-09T21:08:24.829Z,11.77
2018-06-09T21:10:53.405Z,13.30
2018-06-09T21:13:21.629Z,10.40
2018-06-09T21:15:50.149Z,12.13
2018-06-09T21:18:18.633Z,11.27
2018-06-09T21:20:47.171Z,9.70
2018-06-09T21:23:15.845Z,10.70
2018-06-09T21:25:44.369Z,11.70
2018-06-09T21:28:18.230Z,10.80
2018-06-09T21:30:50.958Z,15.17
2018-06-09T21:34:33.383Z,16.37
2018-06-09T21:37:07.158Z,13.33
2018-06-09T21:39:41.022Z,18.37
2018-06-09T21:42:14.885Z,11.97
2018-06-09T21:45:51.570Z,13.93
2018-06-09T21:48:20.854Z,12.73
2018-06-09T21:50:50.052Z,11.70
2018-06-09T21:53:18.550Z,12.50
2018-06-09T21:55:47.045Z,15.30
2018-06-09T21:58:15.565Z,9.30
2018-06-09T22:00:44.092Z,13.10
2018-06-09T22:03:13.647Z,16.27
2018-06-09T22:05:42.145Z,13.60
2018-06-09T22:08:10.666Z,16.30
2018-06-09T22:10:39.234Z,16.77
2018-06-09T22:13:07.751Z,18.00
2018-06-09T22:15:36.227Z,10.67
2018-06-09T22:18:04.794Z,20.03
2018-06-09T22:20:33.302Z,10.67
2018-06-09T22:23:01.819Z,14.20
2018-06-09T22:25:35.535Z,12.53
2018-06-09T22:28:04.127Z,16.80
2018-06-09T22:30:32.661Z,20.20
2018-06-09T22:33:01.184Z,35.47
2018-06-09T22:35:29.737Z,11.60
2018-06-09T22:37:58.269Z,23.30
2018-06-09T22:40:26.755Z,18.63
2018-06-09T22:42:55.265Z,14.70
2018-06-09T22:45:23.791Z,23.53
2018-06-09T22:47:52.319Z,16.37
2018-06-09T22:50:20.890Z,18.87
2018-06-09T22:52:50.361Z,18.53
2018-06-09T22:55:18.870Z,12.70
2018-06-09T22:57:47.411Z,17.93
2018-06-09T23:00:26.718Z,13.63
2018-06-09T23:02:55.277Z,14.87
2018-06-09T23:05:23.782Z,18.60
2018-06-09T23:07:52.347Z,17.53
2018-06-09T23:10:20.863Z,14.27
2018-06-09T23:12:49.420Z,16.60
2018-06-09T23:15:17.928Z,14.77
2018-06-09T23:17:46.465Z,9.77
2018-06-09T23:20:14.995Z,15.83
2018-06-09T23:22:43.542Z,13.97
2018-06-09T23:25:12.057Z,11.57
2018-06-09T23:27:40.590Z,12.20
2018-06-09T23:30:09.104Z,15.73
2018-06-09T23:32:37.654Z,13.70
2018-06-09T23:35:06.178Z,14.77
2018-06-09T23:37:34.717Z,18.13
2018-06-09T23:40:03.286Z,22.63
2018-06-09T23:42:31.827Z,13.40
2018-06-09T23:45:00.383Z,16.13
2018-06-09T23:47:28.887Z,11.77
2018-06-09T23:49:57.442Z,16.43
2018-06-09T23:52:25.958Z,20.30
2018-06-09T23:54:54.532Z,13.03
2018-06-09T23:57:23.061Z,14.93
2018-06-09T23:59:51.284Z,20.07
